createdAt,value
2018-10-12T00:00:43.463Z,85.36
2018-10-12T00:03:13.042Z,85.29
2018-10-12T00:05:42.574Z,85.17
2018-10-12T00:08:11.480Z,85.04
2018-10-12T00:10:40.361Z,85.27
2018-10-12T00:13:09.222Z,85.65
2018-10-12T00:15:38.106Z,85.87
2018-10-12T00:18:07.051Z,86.09
2018-10-12T00:20:35.987Z,86.13
2018-10-12T00:23:04.898Z,85.62
2018-10-12T00:25:33.784Z,85.92
2018-10-12T00:28:02.674Z,85.89
2018-10-12T00:30:31.609Z,86.30
2018-10-12T00:33:00.501Z,85.78
2018-10-12T00:35:29.379Z,86.27
2018-10-12T00:37:58.272Z,85.92
2018-10-12T00:40:27.155Z,85.06
2018-10-12T00:42:56.093Z,84.05
2018-10-12T00:45:26.007Z,84.08
2018-10-12T00:48:01.859Z,84.51
2018-10-12T00:50:32.139Z,84.45
2018-10-12T00:53:01.311Z,83.94
2018-10-12T00:55:32.560Z,84.57
2018-10-12T00:58:01.426Z,84.29
2018-10-12T01:00:30.307Z,85.07
2018-10-12T01:02:59.176Z,84.73
2018-10-12T01:05:28.139Z,84.54
2018-10-12T01:07:57.022Z,84.97
2018-10-12T01:10:25.915Z,84.67
2018-10-12T01:12:55.127Z,84.73
2018-10-12T01:15:24.075Z,84.83
2018-10-12T01:17:52.958Z,85.14
2018-10-12T01:20:21.827Z,85.53
2018-10-12T01:22:50.801Z,84.60
2018-10-12T01:25:20.342Z,84.20
2018-10-12T01:27:49.223Z,84.43
2018-10-12T01:30:18.114Z,83.87
2018-10-12T01:32:52.355Z,84.26
2018-10-12T01:35:21.216Z,84.29
2018-10-12T01:37:50.121Z,84.00
2018-10-12T01:40:19.018Z,83.55
2018-10-12T01:42:47.903Z,83.64
2018-10-12T01:45:16.790Z,82.88
2018-10-12T01:47:45.688Z,82.21
2018-10-12T01:50:14.590Z,82.90
2018-10-12T01:52:43.467Z,82.69
2018-10-12T01:55:12.518Z,82.37
2018-10-12T01:57:41.393Z,82.19
2018-10-12T02:00:10.307Z,82.38
2018-10-12T02:02:39.390Z,82.58
2018-10-12T02:05:08.587Z,81.73
2018-10-12T02:07:37.555Z,81.44
2018-10-12T02:10:06.602Z,82.18
2018-10-12T02:12:35.359Z,81.93
2018-10-12T02:15:04.735Z,82.21
2018-10-12T02:17:33.635Z,82.14
2018-10-12T02:20:02.507Z,82.61
2018-10-12T02:22:31.546Z,82.72
2018-10-12T02:25:00.519Z,82.95
2018-10-12T02:27:29.391Z,82.47
2018-10-12T02:29:58.628Z,82.49
2018-10-12T02:32:27.514Z,82.08
2018-10-12T02:34:56.569Z,82.40
2018-10-12T02:37:25.460Z,82.82
2018-10-12T02:39:54.353Z,82.91
2018-10-12T02:42:23.208Z,82.96
2018-10-12T02:44:52.104Z,82.33
2018-10-12T02:47:21.122Z,82.77
2018-10-12T02:49:50.003Z,83.12
2018-10-12T02:52:18.903Z,83.31
2018-10-12T02:54:47.870Z,83.51
2018-10-12T02:57:16.750Z,83.41
2018-10-12T02:59:45.652Z,82.83
2018-10-12T03:02:14.528Z,83.58
2018-10-12T03:04:43.475Z,84.12
2018-10-12T03:07:12.386Z,84.35
2018-10-12T03:09:41.333Z,84.00
2018-10-12T03:12:10.252Z,84.13
2018-10-12T03:14:39.142Z,84.04
2018-10-12T03:17:08.061Z,84.32
2018-10-12T03:19:37.284Z,83.85
2018-10-12T03:22:06.172Z,83.79
2018-10-12T03:24:35.062Z,83.88
2018-10-12T03:27:03.955Z,83.68
2018-10-12T03:29:32.926Z,83.29
2018-10-12T03:32:02.236Z,83.22
2018-10-12T03:34:31.394Z,83.11
2018-10-12T03:37:00.307Z,82.78
2018-10-12T03:39:29.292Z,82.37
2018-10-12T03:41:58.274Z,82.78
2018-10-12T03:44:27.133Z,82.29
2018-10-12T03:46:56.066Z,82.02
2018-10-12T03:49:24.956Z,82.24
2018-10-12T03:51:53.931Z,82.54
2018-10-12T03:54:22.738Z,82.38
2018-10-12T03:56:51.629Z,82.27
2018-10-12T03:59:20.526Z,81.97
2018-10-12T04:01:49.367Z,81.93
2018-10-12T04:04:18.324Z,81.15
2018-10-12T04:06:47.220Z,81.62
2018-10-12T04:09:16.079Z,81.57
2018-10-12T04:11:44.976Z,82.01
2018-10-12T04:14:13.884Z,82.00
2018-10-12T04:16:42.789Z,81.69
2018-10-12T04:19:11.776Z,81.72
2018-10-12T04:21:40.634Z,81.91
2018-10-12T04:24:09.519Z,82.42
2018-10-12T04:26:38.440Z,82.66
2018-10-12T04:29:07.335Z,82.63
2018-10-12T04:31:36.214Z,82.73
2018-10-12T04:34:05.164Z,82.65
2018-10-12T04:36:34.065Z,81.95
2018-10-12T04:39:14.423Z,82.42
2018-10-12T04:41:43.418Z,82.55
2018-10-12T04:44:12.476Z,82.65
2018-10-12T04:46:43.271Z,83.64
2018-10-12T04:49:13.235Z,82.96
2018-10-12T04:51:46.478Z,83.42
2018-10-12T04:54:15.448Z,83.22
2018-10-12T04:56:44.697Z,82.92
2018-10-12T04:59:13.695Z,82.79
2018-10-12T05:01:42.691Z,82.68
2018-10-12T05:04:11.621Z,82.11
2018-10-12T05:06:40.549Z,82.47
2018-10-12T05:09:10.724Z,82.73
2018-10-12T05:11:40.013Z,83.82
2018-10-12T05:14:09.399Z,83.71
2018-10-12T05:16:38.341Z,84.11
2018-10-12T05:19:07.938Z,83.63
2018-10-12T05:21:36.848Z,83.49
2018-10-12T05:24:05.760Z,83.97
2018-10-12T05:26:34.719Z,83.51
2018-10-12T05:29:03.723Z,83.86
2018-10-12T05:31:32.532Z,84.35
2018-10-12T05:34:01.495Z,84.77
2018-10-12T05:36:30.411Z,84.71
2018-10-12T05:38:59.296Z,84.32
2018-10-12T05:41:28.212Z,84.59
2018-10-12T05:43:57.121Z,84.82
2018-10-12T05:46:26.011Z,84.17
2018-10-12T05:49:06.233Z,83.97
2018-10-12T05:51:35.294Z,84.36
2018-10-12T05:54:04.259Z,84.47
2018-10-12T05:56:34.954Z,84.52
2018-10-12T05:59:04.388Z,84.16
2018-10-12T06:01:33.326Z,84.32
2018-10-12T06:04:02.236Z,84.40
2018-10-12T06:06:31.131Z,84.26
2018-10-12T06:09:01.648Z,84.33
2018-10-12T06:11:30.709Z,83.77
2018-10-12T06:13:59.568Z,84.59
2018-10-12T06:16:28.462Z,85.01
2018-10-12T06:18:57.487Z,84.38
2018-10-12T06:21:26.457Z,84.14
2018-10-12T06:23:55.285Z,85.15
2018-10-12T06:26:31.090Z,85.72
2018-10-12T06:29:00.137Z,84.56
2018-10-12T06:31:29.033Z,84.64
2018-10-12T06:33:58.055Z,83.30
2018-10-12T06:36:26.930Z,82.27
2018-10-12T06:38:55.797Z,81.47
2018-10-12T06:41:24.721Z,81.61
2018-10-12T06:43:53.575Z,81.93
2018-10-12T06:46:22.535Z,82.68
2018-10-12T06:48:53.458Z,83.74
2018-10-12T06:51:22.341Z,83.55
2018-10-12T06:53:51.243Z,82.83
2018-10-12T06:56:20.269Z,81.98
2018-10-12T06:58:49.162Z,82.09
2018-10-12T07:01:18.140Z,80.59
2018-10-12T07:03:47.295Z,80.93
2018-10-12T07:06:16.333Z,80.79
2018-10-12T07:08:45.223Z,79.88
2018-10-12T07:11:14.097Z,79.70
2018-10-12T07:13:43.111Z,79.94
2018-10-12T07:16:11.991Z,80.24
2018-10-12T07:18:41.965Z,80.61
2018-10-12T07:21:11.035Z,80.51
2018-10-12T07:23:39.890Z,80.40
2018-10-12T07:26:08.835Z,81.30
2018-10-12T07:28:38.775Z,79.71
2018-10-12T07:31:08.424Z,78.75
2018-10-12T07:33:37.370Z,77.63
2018-10-12T07:36:06.382Z,76.13
2018-10-12T07:38:35.489Z,75.31
2018-10-12T07:41:04.388Z,73.66
2018-10-12T07:43:33.295Z,75.34
2018-10-12T07:46:02.171Z,75.13
2018-10-12T07:48:31.072Z,74.15
2018-10-12T07:50:59.911Z,75.04
2018-10-12T07:53:28.892Z,76.17
2018-10-12T07:55:57.779Z,77.39
2018-10-12T07:58:27.484Z,76.85
2018-10-12T08:00:56.442Z,76.96
2018-10-12T08:03:25.304Z,77.93
2018-10-12T08:05:54.171Z,77.09
2018-10-12T08:08:23.051Z,79.05
2018-10-12T08:10:51.943Z,79.40
2018-10-12T08:13:20.916Z,78.88
2018-10-12T08:15:52.623Z,79.58
2018-10-12T08:18:21.543Z,78.30
2018-10-12T08:20:50.483Z,78.27
2018-10-12T08:23:19.542Z,78.00
2018-10-12T08:25:48.830Z,78.72
2018-10-12T08:28:18.270Z,78.19
2018-10-12T08:30:47.211Z,77.62
2018-10-12T08:33:16.083Z,77.83
2018-10-12T08:35:44.978Z,78.02
2018-10-12T08:38:13.871Z,77.89
2018-10-12T08:40:42.835Z,78.70
2018-10-12T08:43:11.703Z,78.25
2018-10-12T08:45:40.576Z,78.58
2018-10-12T08:48:09.507Z,78.30
2018-10-12T08:50:38.395Z,78.52
2018-10-12T08:53:07.349Z,78.17
2018-10-12T08:55:36.260Z,78.21
2018-10-12T09:02:42.335Z,79.53
2018-10-12T09:05:11.288Z,80.13
2018-10-12T09:07:41.289Z,80.32
2018-10-12T09:10:10.327Z,79.64
2018-10-12T09:12:39.499Z,79.86
2018-10-12T09:15:08.388Z,80.36
2018-10-12T09:17:37.359Z,80.28
2018-10-12T09:20:06.936Z,80.64
2018-10-12T09:22:35.821Z,80.62
2018-10-12T09:25:04.785Z,80.74
2018-10-12T09:27:33.686Z,80.61
2018-10-12T09:30:02.671Z,80.58
2018-10-12T09:32:31.545Z,81.01
2018-10-12T09:35:00.408Z,81.06
2018-10-12T09:37:29.375Z,81.34
2018-10-12T09:39:58.241Z,81.94
2018-10-12T09:42:28.249Z,81.03
2018-10-12T09:44:57.195Z,81.00
2018-10-12T09:47:26.158Z,81.03
2018-10-12T09:49:55.039Z,81.04
2018-10-12T09:52:23.967Z,81.17
2018-10-12T09:54:52.827Z,80.71
2018-10-12T09:57:24.783Z,81.10
2018-10-12T09:59:53.942Z,80.89
2018-10-12T10:02:27.031Z,81.19
2018-10-12T10:05:00.189Z,80.68
2018-10-12T10:07:29.263Z,80.49
2018-10-12T10:09:58.173Z,80.23
2018-10-12T10:12:27.067Z,80.22
2018-10-12T10:14:55.956Z,79.95
2018-10-12T10:17:24.840Z,79.76
2018-10-12T10:19:53.708Z,79.98
2018-10-12T10:22:22.619Z,79.45
2018-10-12T10:24:51.573Z,79.76
2018-10-12T10:27:20.465Z,80.02
2018-10-12T10:29:49.384Z,79.54
2018-10-12T10:32:18.431Z,79.50
2018-10-12T10:34:47.342Z,79.61
2018-10-12T10:37:16.258Z,79.44
2018-10-12T10:39:50.583Z,78.31
2018-10-12T10:42:19.458Z,77.61
2018-10-12T10:44:48.432Z,76.76
2018-10-12T10:47:17.500Z,76.13
2018-10-12T10:49:46.419Z,76.16
2018-10-12T10:52:15.289Z,75.96
2018-10-12T10:54:44.524Z,75.21
2018-10-12T10:57:13.508Z,74.62
2018-10-12T10:59:42.399Z,74.99
2018-10-12T11:02:11.349Z,74.62
2018-10-12T11:04:40.239Z,74.29
2018-10-12T11:07:09.129Z,73.80
2018-10-12T11:09:38.019Z,73.92
2018-10-12T11:12:07.100Z,72.95
2018-10-12T11:14:35.943Z,72.61
2018-10-12T11:17:04.819Z,71.47
2018-10-12T11:19:33.711Z,71.00
2018-10-12T11:22:02.570Z,71.52
2018-10-12T11:24:31.463Z,68.44
2018-10-12T11:27:00.356Z,68.38
2018-10-12T11:29:29.287Z,67.32
2018-10-12T11:31:58.180Z,67.10
2018-10-12T11:34:27.070Z,67.75
2018-10-12T11:36:55.929Z,68.26
2018-10-12T11:39:24.833Z,67.51
2018-10-12T11:41:53.732Z,67.49
2018-10-12T11:44:22.608Z,66.32
2018-10-12T11:46:51.546Z,65.61
2018-10-12T11:49:20.617Z,66.47
2018-10-12T11:51:49.552Z,66.25
2018-10-12T11:54:18.671Z,64.94
2018-10-12T11:56:47.655Z,64.41
2018-10-12T11:59:16.556Z,64.34
2018-10-12T12:01:45.488Z,65.31
2018-10-12T12:04:14.481Z,64.84
2018-10-12T12:06:43.351Z,64.31
2018-10-12T12:09:12.236Z,63.23
2018-10-12T12:11:41.117Z,62.16
2018-10-12T12:14:10.030Z,61.86
2018-10-12T12:16:38.999Z,61.45
2018-10-12T12:19:07.909Z,60.63
2018-10-12T12:21:36.939Z,59.78
2018-10-12T12:24:05.925Z,59.47
2018-10-12T12:26:34.798Z,59.24
2018-10-12T12:29:03.701Z,59.91
2018-10-12T12:31:32.630Z,58.42
2018-10-12T12:34:06.932Z,57.82
2018-10-12T12:36:35.860Z,57.35
2018-10-12T12:39:06.427Z,58.05
2018-10-12T12:41:35.458Z,57.91
2018-10-12T12:44:04.311Z,57.56
2018-10-12T12:46:33.195Z,57.65
2018-10-12T12:49:02.637Z,57.84
2018-10-12T12:51:31.284Z,57.82
2018-10-12T12:54:00.215Z,56.68
2018-10-12T12:56:29.105Z,56.36
2018-10-12T12:58:58.149Z,56.75
2018-10-12T13:01:27.073Z,55.97
2018-10-12T13:03:55.985Z,56.75
2018-10-12T13:06:24.935Z,56.46
2018-10-12T13:08:53.811Z,56.98
2018-10-12T13:11:22.787Z,57.37
2018-10-12T13:13:51.716Z,57.07
2018-10-12T13:16:20.732Z,56.19
2018-10-12T13:18:49.600Z,57.49
2018-10-12T13:21:18.519Z,56.59
2018-10-12T13:23:47.478Z,55.46
2018-10-12T13:26:16.692Z,55.65
2018-10-12T13:28:45.857Z,55.83
2018-10-12T13:31:14.895Z,56.39
2018-10-12T13:33:43.789Z,56.09
2018-10-12T13:36:12.817Z,55.50
2018-10-12T13:38:41.714Z,55.84
2018-10-12T13:41:10.691Z,56.10
2018-10-12T13:43:39.670Z,55.63
2018-10-12T13:46:08.645Z,55.51
2018-10-12T13:48:37.639Z,54.82
2018-10-12T13:51:06.903Z,55.34
2018-10-12T13:53:35.856Z,55.60
2018-10-12T13:56:05.100Z,56.38
2018-10-12T13:58:34.131Z,55.40
2018-10-12T14:01:03.273Z,55.56
2018-10-12T14:03:32.134Z,55.19
2018-10-12T14:06:01.321Z,55.26
2018-10-12T14:08:31.121Z,56.30
2018-10-12T14:11:00.256Z,56.55
2018-10-12T14:13:29.209Z,56.86
2018-10-12T14:15:58.609Z,57.31
2018-10-12T14:18:32.988Z,57.28
2018-10-12T14:21:01.846Z,57.82
2018-10-12T14:23:30.758Z,58.17
2018-10-12T14:25:59.782Z,59.07
2018-10-12T14:28:28.684Z,58.95
2018-10-12T14:30:57.685Z,58.55
2018-10-12T14:33:26.836Z,58.77
2018-10-12T14:35:56.909Z,58.78
2018-10-12T14:38:25.884Z,58.23
2018-10-12T14:40:54.868Z,58.09
2018-10-12T14:43:23.822Z,58.02
2018-10-12T14:45:52.799Z,57.90
2018-10-12T14:48:21.763Z,57.97
2018-10-12T14:50:50.676Z,58.37
2018-10-12T14:53:19.656Z,58.21
2018-10-12T14:55:48.514Z,58.71
2018-10-12T14:58:17.587Z,58.95
2018-10-12T15:00:46.566Z,59.77
2018-10-12T15:03:15.513Z,59.15
2018-10-12T15:05:45.447Z,59.59
2018-10-12T15:08:14.468Z,59.92
2018-10-12T15:10:43.475Z,60.44
2018-10-12T15:13:12.404Z,60.56
2018-10-12T15:15:41.289Z,61.37
2018-10-12T15:18:10.281Z,62.14
2018-10-12T15:20:39.251Z,62.05
2018-10-12T15:23:08.221Z,61.89
2018-10-12T15:25:37.249Z,63.56
2018-10-12T15:28:06.208Z,63.32
2018-10-12T15:30:35.243Z,62.95
2018-10-12T15:33:04.198Z,62.68
2018-10-12T15:35:33.226Z,63.29
2018-10-12T15:38:02.225Z,63.04
2018-10-12T15:40:31.263Z,62.41
2018-10-12T15:43:00.236Z,62.86
2018-10-12T15:45:29.067Z,63.19
2018-10-12T15:47:58.035Z,63.59
2018-10-12T15:50:27.033Z,63.85
2018-10-12T15:52:56.017Z,64.07
2018-10-12T15:55:25.005Z,63.83
2018-10-12T15:57:53.880Z,64.11
2018-10-12T16:00:22.868Z,64.38
2018-10-12T16:02:51.754Z,64.25
2018-10-12T16:05:20.773Z,64.48
2018-10-12T16:07:50.094Z,64.55
2018-10-12T16:10:19.124Z,64.42
2018-10-12T16:12:48.095Z,64.72
2018-10-12T16:15:17.105Z,65.53
2018-10-12T16:17:46.103Z,65.51
2018-10-12T16:20:15.003Z,66.03
2018-10-12T16:22:43.996Z,65.87
2018-10-12T16:25:24.187Z,65.67
2018-10-12T16:27:53.087Z,65.60
2018-10-12T16:30:22.118Z,66.19
2018-10-12T16:32:51.091Z,66.52
2018-10-12T16:35:20.168Z,66.98
2018-10-12T16:37:49.187Z,67.52
2018-10-12T16:40:18.204Z,67.28
2018-10-12T16:42:47.267Z,67.72
2018-10-12T16:45:16.273Z,68.03
2018-10-12T16:47:45.230Z,68.33
2018-10-12T16:50:14.195Z,68.55
2018-10-12T16:52:43.100Z,68.63
2018-10-12T16:55:12.008Z,68.72
2018-10-12T16:57:40.998Z,69.10
2018-10-12T17:00:09.872Z,69.25
2018-10-12T17:02:38.863Z,69.91
2018-10-12T17:05:07.798Z,69.79
2018-10-12T17:07:36.668Z,69.27
2018-10-12T17:11:34.806Z,69.24
2018-10-12T17:14:03.754Z,69.36
2018-10-12T17:16:32.756Z,70.20
2018-10-12T17:19:01.735Z,70.38
2018-10-12T17:21:30.778Z,70.82
2018-10-12T17:23:59.833Z,70.60
2018-10-12T17:26:28.829Z,70.67
2018-10-12T17:28:57.930Z,70.67
2018-10-12T17:31:26.886Z,70.79
2018-10-12T17:33:55.791Z,71.05
2018-10-12T17:36:24.747Z,71.10
2018-10-12T17:38:53.716Z,71.14
2018-10-12T17:41:23.715Z,71.59
2018-10-12T17:43:52.611Z,71.82
2018-10-12T17:46:21.604Z,71.61
2018-10-12T17:48:50.613Z,71.65
2018-10-12T17:51:19.603Z,71.97
2018-10-12T17:53:48.552Z,72.02
2018-10-12T17:56:17.432Z,71.81
2018-10-12T17:58:46.361Z,72.06
2018-10-12T18:01:15.312Z,71.89
2018-10-12T18:03:44.260Z,72.30
2018-10-12T18:06:13.234Z,72.49
2018-10-12T18:08:42.309Z,72.13
2018-10-12T18:11:11.393Z,72.48
2018-10-12T18:13:40.349Z,72.79
2018-10-12T18:16:09.400Z,72.39
2018-10-12T18:18:38.319Z,72.46
2018-10-12T18:21:07.395Z,72.90
2018-10-12T18:23:36.445Z,73.35
2018-10-12T18:26:06.445Z,73.38
2018-10-12T18:28:35.415Z,72.82
2018-10-12T18:31:04.296Z,72.86
2018-10-12T18:33:33.274Z,73.39
2018-10-12T18:36:02.237Z,73.36
2018-10-12T18:38:31.171Z,73.11
2018-10-12T18:41:00.085Z,73.36
2018-10-12T18:43:29.107Z,72.80
2018-10-12T18:45:58.051Z,72.57
2018-10-12T18:48:27.083Z,72.70
2018-10-12T18:50:56.241Z,72.36
2018-10-12T18:53:25.271Z,72.98
2018-10-12T18:55:55.220Z,72.38
2018-10-12T18:58:24.219Z,72.24
2018-10-12T19:00:53.163Z,72.55
2018-10-12T19:03:22.103Z,72.47
2018-10-12T19:05:51.072Z,72.64
2018-10-12T19:08:20.129Z,72.55
2018-10-12T19:10:49.139Z,71.77
2018-10-12T19:13:18.141Z,71.86
2018-10-12T19:15:47.079Z,72.21
2018-10-12T19:18:15.977Z,72.29
2018-10-12T19:20:45.023Z,72.89
2018-10-12T19:23:13.931Z,73.14
2018-10-12T19:25:42.821Z,73.07
2018-10-12T19:28:11.735Z,72.70
2018-10-12T19:30:40.724Z,72.51
2018-10-12T19:33:09.621Z,73.09
2018-10-12T19:35:38.595Z,72.55
2018-10-12T19:38:08.490Z,72.98
2018-10-12T19:40:37.455Z,72.50
2018-10-12T19:43:06.448Z,71.85
2018-10-12T19:45:35.404Z,72.16
2018-10-12T19:48:04.338Z,71.96
2018-10-12T19:50:33.285Z,72.36
2018-10-12T19:53:04.493Z,71.95
2018-10-12T19:55:33.345Z,72.12
2018-10-12T19:58:02.481Z,72.04
2018-10-12T20:00:31.414Z,72.29
2018-10-12T20:03:00.683Z,72.61
2018-10-12T20:05:29.675Z,72.99
2018-10-12T20:07:58.623Z,72.50
2018-10-12T20:10:27.683Z,72.61
2018-10-12T20:12:56.645Z,73.21
2018-10-12T20:15:25.639Z,72.86
2018-10-12T20:17:54.607Z,73.05
2018-10-12T20:20:23.561Z,73.25
2018-10-12T20:22:52.676Z,72.97
2018-10-12T20:25:21.717Z,73.11
2018-10-12T20:27:50.976Z,73.45
2018-10-12T20:30:19.971Z,72.71
2018-10-12T20:32:48.876Z,72.88
2018-10-12T20:35:18.916Z,72.83
2018-10-12T20:37:47.865Z,73.04
2018-10-12T20:40:17.846Z,72.81
2018-10-12T20:42:46.717Z,73.19
2018-10-12T20:45:15.707Z,72.93
2018-10-12T20:47:44.651Z,72.72
2018-10-12T20:50:13.531Z,72.80
2018-10-12T20:52:42.611Z,73.04
2018-10-12T20:55:11.590Z,73.00
2018-10-12T20:57:46.252Z,72.90
2018-10-12T21:00:16.492Z,72.49
2018-10-12T21:02:45.525Z,73.00
2018-10-12T21:05:14.539Z,72.60
2018-10-12T21:07:44.219Z,72.87
2018-10-12T21:10:13.228Z,72.95
2018-10-12T21:12:44.237Z,73.00
2018-10-12T21:15:18.561Z,73.26
2018-10-12T21:17:48.492Z,72.62
2018-10-12T21:20:17.443Z,72.69
2018-10-12T21:22:46.310Z,72.74
2018-10-12T21:25:15.243Z,73.00
2018-10-12T21:27:44.259Z,73.16
2018-10-12T21:30:13.238Z,72.92
2018-10-12T21:32:42.245Z,72.89
2018-10-12T21:41:58.251Z,72.86
2018-10-12T21:44:27.174Z,72.71
2018-10-12T21:46:56.190Z,73.16
2018-10-12T21:49:25.131Z,72.73
2018-10-12T21:51:54.444Z,72.70
2018-10-12T21:54:23.450Z,73.18
2018-10-12T21:56:52.326Z,72.83
2018-10-12T21:59:21.366Z,73.19
2018-10-12T22:01:50.300Z,73.52
2018-10-12T22:04:20.374Z,72.77
2018-10-12T22:06:49.327Z,73.22
2018-10-12T22:09:18.315Z,72.75
2018-10-12T22:11:47.229Z,72.63
2018-10-12T22:14:16.143Z,71.94
2018-10-12T22:16:45.113Z,72.46
2018-10-12T22:19:14.072Z,72.43
2018-10-12T22:21:42.937Z,72.61
2018-10-12T22:24:11.805Z,72.78
2018-10-12T22:26:40.792Z,72.82
2018-10-12T22:29:09.679Z,72.48
2018-10-12T22:31:38.543Z,72.63
2018-10-12T22:34:07.804Z,72.98
2018-10-12T22:36:36.723Z,72.82
2018-10-12T22:39:07.629Z,72.98
2018-10-12T22:41:36.513Z,72.62
2018-10-12T22:44:05.403Z,72.91
2018-10-12T22:46:34.497Z,73.38
2018-10-12T22:49:03.457Z,73.12
2018-10-12T22:51:32.345Z,72.84
2018-10-12T22:54:01.228Z,72.64
2018-10-12T22:56:30.175Z,73.13
2018-10-12T22:58:59.094Z,72.54
2018-10-12T23:01:27.964Z,73.15
2018-10-12T23:03:56.811Z,73.05
2018-10-12T23:06:25.737Z,73.33
2018-10-12T23:08:54.592Z,73.17
2018-10-12T23:11:23.459Z,73.70
2018-10-12T23:13:52.362Z,73.44
2018-10-12T23:16:21.280Z,73.48
2018-10-12T23:18:50.242Z,73.69
2018-10-12T23:21:19.095Z,73.62
2018-10-12T23:23:47.948Z,73.66
2018-10-12T23:26:16.800Z,73.65
2018-10-12T23:28:45.668Z,73.81
2018-10-12T23:31:14.523Z,73.75
2018-10-12T23:33:54.757Z,73.78
2018-10-12T23:36:23.630Z,74.03
2018-10-12T23:38:52.502Z,73.56
2018-10-12T23:41:21.388Z,73.39
2018-10-12T23:43:50.267Z,74.24
2018-10-12T23:46:19.190Z,74.37
2018-10-12T23:48:48.086Z,74.29
2018-10-12T23:51:17.042Z,74.76
2018-10-12T23:53:45.868Z,74.35
2018-10-12T23:56:14.720Z,74.37
2018-10-12T23:58:43.578Z,73.99
